• Join FlightAware (Why Join?)
  • Login
  • US Flag 
06:07PM EDT


 

Airport Tracker/Info


-or-


 

Live Flight TrackerFlight Track Log ✈ AAL362 ✈ 19-Apr-2013 ✈ KORD - KLGA

Flight Track Log - Related Links

Times and Time Zones

All times are in EDT time to prevent confusion due to time zone crossing. See the AAL362 flight status page for this flight to view local times or setup timezone preferences in your user account.

Time Position Orientation Groundspeed Altitude Reporting Facility
EDT Latitude Longitude Course Direction KTS MPH feet Rate Location/Type
05:41PM 42.0000 -87.9500 90° East 172 198 2,100  Level Chicago TRACON
05:42PM 42.0333 -87.8833 56° Northeast 267 307 4,300 2,340 Climbing Chicago TRACON
05:43PM 41.9552 -87.4327 95° East  Level FlightAware Approximate
05:44PM 41.9445 -87.2775 96° East  Level FlightAware Approximate
05:44PM 42.0114 -87.7000 99° East 301 346 8,700  Level Chicago Center
05:45PM 41.9333 -87.1224 90° East  Level FlightAware Approximate
05:45PM 41.9981 -87.5800 98° East 319 367 11,200  Level Chicago Center
05:46PM 41.9333 -86.9665 90° East  Level FlightAware Approximate
05:46PM 41.9867 -87.4569 97° East 330 380 14,000  Level Chicago Center
05:47PM 41.9728 -87.3303 98° East 341 392 16,000 2,100 Climbing Chicago Center
05:48PM 41.9597 -87.2006 98° East 350 403 18,400 1,980 Climbing Chicago Center
05:49PM 41.9444 -87.0358 97° East 370 426 20,200 1,380 Climbing Chicago Center
05:50PM 41.9483 -86.8836 88° East 403 464 21,300 1,200 Climbing Chicago Center
05:51PM 41.9508 -86.7161 89° East 442 509 22,800 1,500 Climbing Chicago Center
05:52PM 41.9519 -86.5597 89° East 457 526 24,500 1,620 Climbing Chicago Center
05:53PM 41.9556 -86.3478 89° East 471 542 26,200 1,620 Climbing Chicago Center
05:54PM 41.9531 -86.1700 91° East 477 549 27,900 1,140 Climbing Chicago Center
05:55PM 41.9367 -85.9942 97° East 474 545 28,600 480 Climbing Chicago Center
05:56PM 41.9186 -85.8122 98° East 489 563 29,000 600 Climbing Chicago Center
05:57PM 41.9019 -85.6311 97° East 487 560 29,900 840 Climbing Chicago Center
05:58PM 41.8839 -85.4514 98° East 483 556 30,800 900 Climbing Chicago Center
05:59PM 41.8658 -85.2703 98° East 483 556 31,800 840 Climbing Chicago Center
06:00PM 41.8481 -85.0883 97° East 487 560 32,600 540 Climbing Chicago Center
06:01PM 41.8303 -84.9089 98° East 485 558 33,000 180 Climbing Chicago Center
06:02PM 41.8103 -84.7206 98° East 494 568 33,000  Level Cleveland Center
06:03PM 41.7914 -84.5439 98° East 483 556 33,000  Level Cleveland Center
06:04PM 41.7767 -84.3647 96° East 483 556 33,000  Level Cleveland Center
06:05PM 41.7742 -84.1836 91° East 483 556 33,000  Level Cleveland Center
06:06PM 41.7736 -83.9997 90° East 483 556 33,000  Level Cleveland Center
06:07PM 41.7725 -83.8186 90° East 483 556 33,000  Level Cleveland Center
06:08PM 41.7692 -83.6319 91° East 489 563 33,000  Level Cleveland Center
06:09PM 41.7594 -83.4503 94° East 494 568 33,000  Level Cleveland Center
06:10PM 41.7428 -83.2717 97° East 494 568 33,000  Level Cleveland Center
06:11PM 41.7258 -83.0983 97° East 480 552 33,000  Level Cleveland Center
06:12PM 41.6983 -82.9303 102° East 467 537 33,000  Level Cleveland Center
06:13PM 41.6447 -82.7867 117° Southeast 437 503 33,000  Level Cleveland Center
06:14PM 41.5931 -82.6517 117° Southeast 418 481 33,000  Level Cleveland Center
06:15PM 41.5414 -82.5139 117° Southeast 418 481 33,000  Level Cleveland Center
06:16PM 41.4853 -82.3708 118° Southeast 407 468 33,000  Level Cleveland Center
06:17PM 41.4353 -82.2339 116° Southeast 407 468 33,000  Level Cleveland Center
06:18PM 41.3869 -82.1053 117° Southeast 402 463 33,000  Level Cleveland Center
06:19PM 41.3533 -81.9606 107° East 396 456 33,000  Level Cleveland Center
06:20PM 41.3617 -81.7867 86° East 431 496 33,000  Level Cleveland Center
06:21PM 41.4194 -81.6242 65° Northeast 457 526 33,000  Level Cleveland Center
06:22PM 41.4439 -81.4475 79° East 487 560 33,000  Level Cleveland Center
06:23PM 41.4200 -81.2919 102° East 442 509 33,000  Level Cleveland Center
06:24PM 41.4106 -81.1258 94° East 447 514 33,000  Level Cleveland Center
06:25PM 41.4028 -80.9403 93° East 454 522 33,000  Level Cleveland Center
06:26PM 41.3950 -80.7714 93° East 454 522 33,000  Level Cleveland Center
06:27PM 41.3889 -80.6025 93° East 459 528 33,000  Level Cleveland Center
06:28PM 41.3803 -80.4392 94° East 459 528 33,000  Level Cleveland Center
06:29PM 41.3758 -80.2731 92° East 459 528 33,000  Level Cleveland Center
06:30PM 41.3669 -80.1072 94° East 454 522 33,000  Level Cleveland Center
06:31PM 41.3558 -79.9469 95° East 446 513 33,000  Level Cleveland Center
06:32PM 41.3464 -79.7783 94° East 441 507 33,000  Level Cleveland Center
06:33PM 41.3389 -79.6125 93° East 441 507 33,000  Level Cleveland Center
06:34PM 41.3311 -79.4494 94° East 441 507 33,000  Level Cleveland Center
06:35PM 41.3189 -79.2781 95° East 446 513 33,000  Level Cleveland Center
06:36PM 41.3083 -79.1069 95° East 451 519 33,000  Level Cleveland Center
06:37PM 41.2997 -78.9331 94° East 463 533 33,000  Level Cleveland Center
06:38PM 41.2847 -78.7567 96° East 469 540 33,000  Level Cleveland Center
06:39PM 41.2650 -78.5831 99° East 474 545 33,000  Level Cleveland Center
06:41PM 41.2383 -78.3425 98° East 453 521 33,000  Level New York Center
06:42PM 41.2175 -78.1747 99° East 453 521 33,000  Level New York Center
06:43PM 41.1967 -78.0069 99° East 453 521 33,000 -300 Level New York Center
06:44PM 41.1775 -77.8422 99° East 453 521 32,500 -960 Descending New York Center
06:45PM 41.1539 -77.6742 101° East 453 521 31,100 -1,500 Descending New York Center
06:46PM 41.1761 -77.5056 80° East 446 513 29,600 -1,440 Descending New York Center
06:47PM 41.2417 -77.3769 56° Northeast 438 504 28,300 -1,380 Descending New York Center
06:48PM 41.2989 -77.2111 65° Northeast 445 512 26,800 -1,500 Descending New York Center
06:49PM 41.2683 -77.0811 107° East 402 463 25,400 -1,200 Descending New York Center
06:50PM 41.2053 -76.9706 127° Southeast 361 415 24,500 -1,080 Descending New York Center
06:51PM 41.1419 -76.8656 129° Southeast 361 415 23,300 -1,200 Descending New York Center
06:52PM 41.0786 -76.7633 129° Southeast 361 415 22,100 -1,200 Descending New York Center
06:53PM 41.0211 -76.6622 127° Southeast 354 407 20,900 -1,200 Descending New York Center
06:54PM 40.9917 -76.5386 107° East 349 402 19,800 -1,020 Descending New York Center
06:55PM 40.9644 -76.4153 106° East 349 402 19,000 -600 Descending New York Center
06:56PM 40.9292 -76.2778 109° East 349 402 18,600 -1,260 Descending New York Center
06:57PM 40.8975 -76.1489 108° East 354 407 16,600 -1,920 Descending New York Center
06:58PM 40.8658 -76.0175 108° East 370 426 14,900 -1,680 Descending New York Center
06:59PM 40.8375 -75.9028 108° East 370 426 13,300 -1,020 Descending New York Center
07:00PM 40.8039 -75.7661 108° East 364 419 12,900 -240 Descending New York Center
07:01PM 40.7736 -75.6403 108° East 364 419 12,900  Level New York Center
07:02PM 40.7394 -75.5119 109° East 364 419 12,900 -300 Level New York Center
07:03PM 40.6983 -75.3914 114° Southeast 372 428 12,400 -900 Descending New York Center
07:04PM 40.6628 -75.2850 114° Southeast 353 406 11,100 -1,140 Descending New York Center
07:05PM 40.6178 -75.1536 114° Southeast 353 406 10,200 -600 Descending New York Center
07:06PM 40.5800 -75.0447 115° Southeast 353 406 10,000 -120 Descending New York Center
07:07PM 40.5408 -74.9192 112° Southeast 358 412 10,000  Level New York Center
07:07PM 40.5000 -74.8000 114° Southeast 361 415 10,100  Climbing New York TRACON
07:08PM 40.4667 -74.6833 111° Southeast 355 409 10,100  Level New York TRACON
07:09PM 40.4333 -74.5667 111° Southeast 353 406 10,100  Level New York TRACON
07:10PM 40.4500 -74.4333 81° East 383 441 10,100  Level New York TRACON
07:11PM 40.4833 -74.3000 72° East 369 425 10,100 -480 Level New York TRACON
07:12PM 40.5167 -74.2000 66° East 331 381 9,200 -1,260 Descending New York TRACON
07:13PM 40.5500 -74.0833 69° East 336 387 7,600 -1,740 Descending New York TRACON
07:14PM 40.6333 -74.0333 24° Northeast 321 369 5,800 -1,560 Descending New York TRACON
07:15PM 40.7167 -74.0167 North 314 361 4,500 -900 Descending New York TRACON
07:16PM 40.8000 -74.0000 North 318 366 4,000 -300 Descending New York TRACON
07:17PM 40.8500 -73.9500 37° Northeast 254 292 4,000  Level New York TRACON
07:18PM 40.9167 -73.9000 30° Northeast 244 281 4,000 -180 Level New York TRACON
07:19PM 40.9667 -73.8333 45° Northeast 240 276 3,700 -540 Descending New York TRACON
07:20PM 40.9667 -73.7667 90° East 204 235 3,000 -360 Descending New York TRACON
07:21PM 40.9333 -73.7500 159° South 149 171 3,000 -240 Level New York TRACON
07:22PM 40.9000 -73.7833 217° Southwest 133 153 2,600 -540 Descending New York TRACON
07:23PM 40.8667 -73.8000 201° Southwest 110 127 2,000 -600 Descending New York TRACON